Time;durP1;ratioP1;P1;durP2;ratioP2;P2;SDS_P1;SDS_P2;PMS_P1;PMS_P2;Temp;Humidity;BMP_temperature;BMP_pressure;BME280_temperature;BME280_humidity;BME280_pressure;Samples;Min_cycle;Max_cycle;Signal;HPM_P1;HPM_P2
2022/01/12 00:01:55;;;;;;;77.13;36.17;;;4.20;99.90;;;;;;5067246;28;20083;-69
2022/01/12 00:04:21;;;;;;;60.00;32.20;;;4.20;99.90;;;;;;5065577;28;20044;-69
2022/01/12 00:06:47;;;;;;;73.25;36.22;;;4.20;99.90;;;;;;5059572;28;20538;-69
2022/01/12 00:09:14;;;;;;;62.33;30.33;;;4.20;99.90;;;;;;5059111;28;20045;-69
2022/01/12 00:11:40;;;;;;;68.43;34.45;;;4.20;99.90;;;;;;5059496;28;20045;-69
2022/01/12 00:14:06;;;;;;;64.07;34.00;;;4.20;99.90;;;;;;5060761;28;20052;-69
2022/01/12 00:16:33;;;;;;;63.55;32.10;;;4.20;99.90;;;;;;5057329;28;20406;-69
2022/01/12 00:18:59;;;;;;;100.95;40.80;;;4.20;99.90;;;;;;5058894;28;20056;-69
2022/01/12 00:21:25;;;;;;;76.45;36.85;;;4.20;99.90;;;;;;5059615;28;20033;-69
2022/01/12 00:23:50;;;;;;;81.63;38.97;;;4.20;99.90;;;;;;5066739;28;20069;-69
2022/01/12 00:34:26;;;;;;;63.53;37.22;;;4.20;99.90;;;;;;5065218;28;20048;-69
2022/01/12 00:36:52;;;;;;;60.45;31.67;;;4.20;99.90;;;;;;5059175;28;20037;-69
2022/01/12 00:39:18;;;;;;;79.90;37.38;;;4.20;99.90;;;;;;5057796;28;20100;-69
2022/01/12 00:41:45;;;;;;;106.10;44.22;;;4.20;99.90;;;;;;5059499;28;20044;-69
2022/01/12 00:44:21;;;;;;;71.68;37.15;;;4.30;99.90;;;;;;5060066;28;20101;-69
2022/01/12 00:46:47;;;;;;;116.30;44.67;;;4.30;99.90;;;;;;5070697;28;21058;-69
2022/01/12 00:49:12;;;;;;;95.97;44.15;;;4.20;99.90;;;;;;5059197;28;20049;-69
2022/01/12 00:51:39;;;;;;;77.53;35.15;;;4.20;99.90;;;;;;5060521;28;20033;-69
2022/01/12 00:54:09;;;;;;;71.07;40.10;;;4.20;99.90;;;;;;5055650;28;20044;-69
2022/01/12 00:56:35;;;;;;;68.57;35.15;;;4.20;99.90;;;;;;5061972;28;20560;-69
2022/01/12 00:59:01;;;;;;;107.55;42.28;;;4.20;99.90;;;;;;5064350;28;21574;-69
2022/01/12 01:01:27;;;;;;;77.80;35.28;;;4.30;99.90;;;;;;5057438;28;20315;-69
2022/01/12 01:03:53;;;;;;;63.38;33.42;;;4.20;99.90;;;;;;5063234;28;20063;-68
2022/01/12 01:06:21;;;;;;;64.40;32.75;;;4.20;99.90;;;;;;5053551;28;20044;-69
2022/01/12 01:08:51;;;;;;;69.72;34.10;;;4.20;99.90;;;;;;5060561;28;20080;-69
2022/01/12 01:11:18;;;;;;;66.13;34.75;;;4.30;99.90;;;;;;5059052;28;20040;-69
2022/01/12 01:13:56;;;;;;;69.57;34.28;;;4.30;99.90;;;;;;5053918;28;20538;-69
2022/01/12 01:16:42;;;;;;;65.90;33.22;;;4.30;99.90;;;;;;5064696;28;20107;-69
2022/01/12 01:27:26;;;;;;;76.35;35.35;;;4.30;99.90;;;;;;5064526;28;20486;-69
2022/01/12 01:29:54;;;;;;;71.93;35.92;;;4.30;99.90;;;;;;5058248;28;20037;-69
2022/01/12 01:32:21;;;;;;;71.45;34.03;;;4.30;99.90;;;;;;5054142;28;20501;-69
2022/01/12 01:34:49;;;;;;;65.03;35.17;;;4.30;99.90;;;;;;5061770;28;20110;-69
2022/01/12 01:37:15;;;;;;;73.38;35.35;;;4.30;99.90;;;;;;5059250;28;20124;-69
2022/01/12 01:39:41;;;;;;;65.38;35.20;;;4.30;99.90;;;;;;5061961;28;20037;-69
2022/01/12 01:42:17;;;;;;;82.05;41.95;;;4.40;99.90;;;;;;5046100;28;20040;-69
2022/01/12 01:55:26;;;;;;;63.80;32.83;;;4.40;99.90;;;;;;5055069;28;20046;-68
2022/01/12 01:57:54;;;;;;;63.10;34.10;;;4.40;99.90;;;;;;5066042;28;20114;-68
2022/01/12 02:00:23;;;;;;;62.97;30.08;;;4.40;99.90;;;;;;5060822;28;20045;-69
2022/01/12 02:02:50;;;;;;;53.78;30.45;;;4.40;99.90;;;;;;5059643;28;20069;-69
2022/01/12 02:05:17;;;;;;;62.78;31.33;;;4.40;99.90;;;;;;5052628;28;20087;-68
2022/01/12 02:07:43;;;;;;;55.88;30.60;;;4.40;99.90;;;;;;5056605;28;20041;-68
2022/01/12 02:10:09;;;;;;;57.58;29.92;;;4.40;99.90;;;;;;5058637;28;20041;-68
2022/01/12 02:12:36;;;;;;;56.13;26.73;;;4.40;99.90;;;;;;5056930;28;20055;-69
2022/01/12 02:15:11;;;;;;;70.30;27.90;;;4.40;99.90;;;;;;5053728;28;20102;-68
2022/01/12 02:17:47;;;;;;;59.10;29.70;;;4.40;99.90;;;;;;5053863;28;20044;-69
2022/01/12 02:40:31;;;;;;;49.78;25.88;;;4.30;99.90;;;;;;5057762;28;20050;-68
2022/01/12 02:43:07;;;;;;;58.50;27.60;;;4.30;99.90;;;;;;5058461;28;20039;-69
2022/01/12 02:53:40;;;;;;;51.90;25.30;;;4.30;99.90;;;;;;5058349;28;20457;-68
2022/01/12 02:56:11;;;;;;;46.28;22.25;;;4.40;99.90;;;;;;5059432;28;20140;-68
2022/01/12 02:58:38;;;;;;;48.53;24.88;;;4.30;99.90;;;;;;5066912;28;20098;-68
2022/01/12 03:03:52;;;;;;;47.47;20.35;;;4.30;99.90;;;;;;5061004;28;20107;-68
2022/01/12 03:06:23;;;;;;;46.60;21.13;;;4.20;99.90;;;;;;5065956;28;20593;-69
2022/01/12 03:08:49;;;;;;;33.20;18.63;;;4.20;99.90;;;;;;5058250;28;20041;-68
2022/01/12 03:11:18;;;;;;;33.17;17.95;;;4.10;99.90;;;;;;5060540;28;20033;-69
2022/01/12 03:13:44;;;;;;;29.17;17.40;;;4.10;99.90;;;;;;5066936;28;20045;-68
2022/01/12 03:16:14;;;;;;;37.78;18.65;;;4.00;99.90;;;;;;5059716;28;20045;-69
2022/01/12 03:18:50;;;;;;;20.45;13.32;;;4.00;99.90;;;;;;5063364;28;20040;-69
2022/01/12 03:21:19;;;;;;;26.20;15.23;;;3.90;99.90;;;;;;5062822;28;20040;-69
2022/01/12 03:23:45;;;;;;;28.45;15.95;;;3.90;99.90;;;;;;5063563;28;20044;-68
2022/01/12 03:26:11;;;;;;;26.55;14.05;;;3.80;99.90;;;;;;5056671;28;20037;-68
2022/01/12 03:28:38;;;;;;;25.23;14.02;;;3.80;99.90;;;;;;5065548;28;20036;-69
2022/01/12 03:31:13;;;;;;;55.15;18.08;;;3.70;99.90;;;;;;5057156;28;20036;-68
2022/01/12 03:38:57;;;;;;;40.47;14.20;;;3.60;99.90;;;;;;5067652;28;20150;-68
2022/01/12 03:41:29;;;;;;;63.88;14.48;;;3.50;99.90;;;;;;5065851;28;20028;-68
2022/01/12 03:43:58;;;;;;;24.87;9.40;;;3.40;99.90;;;;;;5053411;28;20037;-68
2022/01/12 03:46:31;;;;;;;11.32;7.90;;;3.40;99.90;;;;;;5067796;28;20044;-68
2022/01/12 03:48:57;;;;;;;30.83;11.80;;;3.30;99.90;;;;;;5060454;28;20474;-68
2022/01/12 03:51:23;;;;;;;22.08;9.73;;;3.20;99.90;;;;;;5068188;28;20039;-68
2022/01/12 03:53:49;;;;;;;51.40;13.95;;;3.20;99.90;;;;;;5057558;28;20029;-68
2022/01/12 03:56:14;;;;;;;35.13;11.73;;;3.20;99.90;;;;;;5059972;28;20041;-69
2022/01/12 03:58:41;;;;;;;66.93;12.98;;;3.20;99.90;;;;;;5065942;28;20048;-68
2022/01/12 04:01:07;;;;;;;116.93;17.58;;;3.20;99.90;;;;;;5060067;28;20036;-68
2022/01/12 04:03:39;;;;;;;167.40;21.35;;;3.20;99.90;;;;;;5057068;28;20039;-69
2022/01/12 04:08:49;;;;;;;103.90;15.70;;;3.10;99.90;;;;;;5060220;28;20052;-69
2022/01/12 04:11:15;;;;;;;36.85;10.32;;;3.00;99.90;;;;;;5060666;28;20052;-68
2022/01/12 04:13:43;;;;;;;58.92;10.23;;;3.00;99.90;;;;;;5064768;28;20044;-68
2022/01/12 04:16:14;;;;;;;41.00;10.00;;;3.00;99.90;;;;;;5060593;28;20049;-68
2022/01/12 04:18:41;;;;;;;36.95;9.30;;;2.90;99.90;;;;;;5061770;28;20179;-68
2022/01/12 04:21:09;;;;;;;87.68;12.30;;;2.90;99.90;;;;;;5065671;28;20045;-68
2022/01/12 04:23:37;;;;;;;53.42;10.27;;;2.80;99.90;;;;;;5061856;28;20145;-68
2022/01/12 04:26:10;;;;;;;53.10;9.98;;;2.70;99.90;;;;;;5053607;28;20144;-68
2022/01/12 04:28:38;;;;;;;64.45;10.98;;;2.70;99.90;;;;;;5061700;28;20098;-68
2022/01/12 04:31:05;;;;;;;31.70;7.35;;;2.70;99.90;;;;;;5060756;28;20039;-68
2022/01/12 04:33:31;;;;;;;65.60;11.65;;;2.70;99.90;;;;;;5058483;28;20048;-68
2022/01/12 04:35:57;;;;;;;33.92;7.88;;;2.70;99.90;;;;;;5067656;28;20055;-68
2022/01/12 04:38:28;;;;;;;32.75;6.78;;;2.70;99.90;;;;;;5061914;28;20548;-68
2022/01/12 04:40:55;;;;;;;57.75;8.43;;;2.70;99.90;;;;;;5063799;28;20051;-68
2022/01/12 04:43:24;;;;;;;106.45;12.30;;;2.70;99.90;;;;;;5056823;28;20053;-68
2022/01/12 04:50:45;;;;;;;102.55;15.80;;;2.60;99.90;;;;;;5063517;28;20044;-68
2022/01/12 04:53:13;;;;;;;41.72;8.93;;;2.60;99.90;;;;;;5058525;28;20037;-68
2022/01/12 04:55:39;;;;;;;88.38;11.73;;;2.60;99.90;;;;;;5061607;28;20043;-68
2022/01/12 04:58:06;;;;;;;20.25;6.32;;;2.60;99.90;;;;;;5064441;28;20044;-68
2022/01/12 05:00:34;;;;;;;59.03;9.02;;;2.50;99.90;;;;;;5058290;28;20073;-68
2022/01/12 05:13:49;;;;;;;9.90;4.20;;;2.30;99.90;;;;;;5055986;28;20079;-68
2022/01/12 05:16:16;;;;;;;14.02;5.28;;;2.40;99.90;;;;;;5060396;28;20051;-68
2022/01/12 05:18:43;;;;;;;16.70;5.25;;;2.30;99.90;;;;;;5060168;28;20271;-68
2022/01/12 05:21:11;;;;;;;8.68;3.92;;;2.20;99.90;;;;;;5064910;28;20082;-68
2022/01/12 05:23:37;;;;;;;6.90;3.38;;;2.20;99.90;;;;;;5061762;28;20136;-68
2022/01/12 05:26:04;;;;;;;15.32;4.28;;;2.20;99.90;;;;;;5043948;28;20094;-68
2022/01/12 05:28:31;;;;;;;10.55;3.58;;;2.20;99.90;;;;;;5061581;28;20394;-68
2022/01/12 05:30:57;;;;;;;9.93;3.70;;;2.10;99.90;;;;;;5055250;28;20044;-68
2022/01/12 05:33:25;;;;;;;13.90;3.58;;;2.10;99.90;;;;;;5055871;28;20210;-68
2022/01/12 05:35:53;;;;;;;5.38;3.25;;;2.10;99.90;;;;;;5063369;28;20040;-68
2022/01/12 05:38:19;;;;;;;7.22;3.13;;;2.10;99.90;;;;;;5052569;28;20120;-68
2022/01/12 05:40:49;;;;;;;11.68;3.63;;;2.10;99.90;;;;;;5059938;28;20623;-68
2022/01/12 05:43:24;;;;;;;6.57;3.83;;;2.10;99.90;;;;;;5060596;28;20038;-68
2022/01/12 05:45:52;;;;;;;13.82;5.10;;;2.10;99.90;;;;;;5058439;28;20075;-68
2022/01/12 05:50:47;;;;;;;20.35;4.40;;;2.10;99.90;;;;;;5061517;28;20079;-68
2022/01/12 05:53:15;;;;;;;19.90;4.40;;;2.10;99.90;;;;;;5057022;28;20501;-68
2022/01/12 05:55:43;;;;;;;14.13;3.25;;;2.10;99.90;;;;;;5061030;28;20051;-68
2022/01/12 05:58:09;;;;;;;17.55;4.43;;;2.10;99.90;;;;;;5061448;28;20508;-68
2022/01/12 06:00:35;;;;;;;33.05;4.60;;;2.00;99.90;;;;;;5056023;28;20120;-68
2022/01/12 06:03:01;;;;;;;22.23;3.67;;;2.00;99.90;;;;;;5063043;28;20447;-68
2022/01/12 06:05:28;;;;;;;12.73;2.70;;;2.00;99.90;;;;;;5064344;28;20048;-69
2022/01/12 06:07:54;;;;;;;9.50;3.22;;;2.00;99.90;;;;;;5064763;28;20502;-68
2022/01/12 06:10:23;;;;;;;22.50;4.70;;;2.00;99.90;;;;;;5061609;28;20080;-68
2022/01/12 06:12:50;;;;;;;32.55;4.68;;;1.90;99.90;;;;;;5059477;28;20056;-68
2022/01/12 06:15:16;;;;;;;24.58;4.40;;;2.00;99.90;;;;;;5058588;28;20052;-68
2022/01/12 06:17:42;;;;;;;37.67;7.13;;;2.00;99.90;;;;;;5060535;28;20547;-68
2022/01/12 06:20:08;;;;;;;28.67;5.53;;;1.90;99.90;;;;;;5056065;28;20479;-68
2022/01/12 06:22:36;;;;;;;18.13;4.05;;;1.90;99.90;;;;;;5061207;28;20040;-68
2022/01/12 06:25:05;;;;;;;25.60;4.68;;;1.90;99.90;;;;;;5062917;28;20400;-68
2022/01/12 06:27:33;;;;;;;34.95;5.80;;;1.80;99.90;;;;;;5058471;28;20119;-68
2022/01/12 06:31:10;;;;;;;54.30;7.90;;;1.80;99.90;;;;;;5057668;28;20067;-68
2022/01/12 06:32:47;;;;;;;44.80;6.40;;;1.80;99.90;;;;;;5059198;28;20056;-68
2022/01/12 06:35:13;;;;;;;20.67;4.50;;;1.80;99.90;;;;;;5054806;28;20045;-68
2022/01/12 06:37:39;;;;;;;34.25;5.15;;;1.80;99.90;;;;;;5059066;28;20103;-68
2022/01/12 06:40:05;;;;;;;21.52;4.00;;;1.80;99.90;;;;;;5060274;28;20051;-68
2022/01/12 06:42:32;;;;;;;29.67;5.00;;;1.70;99.90;;;;;;5055828;28;20044;-68
2022/01/12 06:44:57;;;;;;;71.82;7.00;;;1.70;99.90;;;;;;5062594;28;20120;-68
2022/01/12 06:47:23;;;;;;;15.00;3.00;;;1.70;99.90;;;;;;5057369;28;20581;-68
2022/01/12 06:49:49;;;;;;;20.65;3.80;;;1.70;99.90;;;;;;5059434;28;20033;-68
2022/01/12 06:52:15;;;;;;;52.67;6.53;;;1.70;99.90;;;;;;5056430;28;20083;-68
2022/01/12 06:54:40;;;;;;;62.88;7.00;;;1.70;99.90;;;;;;5053853;28;20048;-68
2022/01/12 06:57:06;;;;;;;39.35;5.88;;;1.70;99.90;;;;;;5055308;28;20044;-68
2022/01/12 06:59:32;;;;;;;38.03;5.30;;;1.70;99.90;;;;;;5065894;28;20040;-68
2022/01/12 07:01:58;;;;;;;28.40;4.97;;;1.70;99.90;;;;;;5054899;28;20115;-68
2022/01/12 07:04:25;;;;;;;59.92;8.13;;;1.70;99.90;;;;;;5059871;28;20112;-68
2022/01/12 07:06:51;;;;;;;34.55;8.25;;;1.70;99.90;;;;;;5063626;28;20069;-68
2022/01/12 07:09:16;;;;;;;43.85;7.13;;;1.70;99.90;;;;;;5055853;28;20115;-68
2022/01/12 07:11:42;;;;;;;28.42;5.53;;;1.70;99.90;;;;;;5060106;28;20341;-68
2022/01/12 07:14:08;;;;;;;44.03;7.68;;;1.70;99.90;;;;;;5065825;28;20052;-68
2022/01/12 07:16:34;;;;;;;82.53;7.75;;;1.60;99.90;;;;;;5060946;28;20437;-68
2022/01/12 07:19:00;;;;;;;41.92;5.90;;;1.60;99.90;;;;;;5065360;28;20044;-68
2022/01/12 07:21:27;;;;;;;52.45;6.43;;;1.60;99.90;;;;;;5057068;28;20071;-68
2022/01/12 07:23:56;;;;;;;128.57;8.57;;;1.60;99.90;;;;;;5059605;28;20107;-68
2022/01/12 07:26:23;;;;;;;120.13;8.93;;;1.60;99.90;;;;;;5060315;28;20032;-68
2022/01/12 07:28:49;;;;;;;32.30;4.45;;;1.50;99.90;;;;;;5063654;28;20430;-67
2022/01/12 07:31:15;;;;;;;24.25;4.07;;;1.50;99.90;;;;;;5059835;28;20041;-68
2022/01/12 07:33:42;;;;;;;164.52;12.32;;;1.50;99.90;;;;;;5062378;28;20567;-68
2022/01/12 07:36:07;;;;;;;114.30;10.38;;;1.50;99.90;;;;;;5063566;28;20032;-68
2022/01/12 07:38:33;;;;;;;100.63;10.90;;;1.50;99.90;;;;;;5060571;28;20152;-68
2022/01/12 07:40:59;;;;;;;182.55;14.00;;;1.50;99.90;;;;;;5059616;28;20048;-68
2022/01/12 07:43:25;;;;;;;87.38;7.85;;;1.50;99.90;;;;;;5060233;28;20048;-68
2022/01/12 07:45:52;;;;;;;68.30;7.07;;;1.50;99.90;;;;;;5062518;28;20052;-68
2022/01/12 07:48:17;;;;;;;48.75;5.00;;;1.50;99.90;;;;;;5064234;28;20047;-68
2022/01/12 07:50:44;;;;;;;61.40;5.93;;;1.50;99.90;;;;;;5058988;28;20071;-68
2022/01/12 07:53:11;;;;;;;24.70;3.85;;;1.50;99.90;;;;;;5061677;28;20037;-68
2022/01/12 07:55:37;;;;;;;29.08;3.97;;;1.50;99.90;;;;;;5073420;28;20054;-68
2022/01/12 07:58:04;;;;;;;18.00;3.55;;;1.50;99.90;;;;;;5065731;28;20172;-68
2022/01/12 08:00:30;;;;;;;27.88;4.75;;;1.50;99.90;;;;;;5063555;28;20041;-68
2022/01/12 08:02:56;;;;;;;7.45;2.60;;;1.50;99.90;;;;;;5063053;28;20063;-68
2022/01/12 08:05:22;;;;;;;10.75;3.08;;;1.60;99.90;;;;;;5057509;28;20052;-68
2022/01/12 08:07:48;;;;;;;10.77;3.25;;;1.60;99.90;;;;;;5059095;28;20036;-68
2022/01/12 08:10:16;;;;;;;7.18;2.85;;;1.60;99.90;;;;;;5063390;28;20037;-68
2022/01/12 08:12:43;;;;;;;26.23;4.53;;;1.60;99.90;;;;;;5063047;28;20514;-68
2022/01/12 08:15:10;;;;;;;5.35;2.83;;;1.70;99.90;;;;;;5052301;28;20037;-68
2022/01/12 08:17:36;;;;;;;108.50;9.45;;;1.70;99.90;;;;;;5062023;28;20056;-68
2022/01/12 08:20:10;;;;;;;87.53;6.45;;;1.70;99.90;;;;;;5061977;28;20089;-69
2022/01/12 08:22:36;;;;;;;52.35;4.72;;;1.70;99.90;;;;;;5064284;28;20140;-68
2022/01/12 08:25:02;;;;;;;34.63;5.90;;;1.70;99.90;;;;;;5059889;28;20115;-68
2022/01/12 08:27:28;;;;;;;64.70;5.25;;;1.60;99.90;;;;;;5063014;28;20490;-68
2022/01/12 08:30:00;;;;;;;14.95;3.45;;;1.70;99.90;;;;;;5066651;28;20044;-68
2022/01/12 08:32:27;;;;;;;66.07;6.63;;;1.70;99.90;;;;;;5059517;28;20033;-68
2022/01/12 08:34:53;;;;;;;78.75;7.60;;;1.60;99.90;;;;;;5060840;28;20043;-68
2022/01/12 08:37:19;;;;;;;20.80;3.60;;;1.60;99.90;;;;;;5058281;28;20033;-68
2022/01/12 08:39:44;;;;;;;9.57;3.30;;;1.60;99.90;;;;;;5056255;28;20045;-68
2022/01/12 08:42:10;;;;;;;24.65;4.80;;;1.70;99.90;;;;;;5058064;28;20037;-68
2022/01/12 08:44:36;;;;;;;28.50;4.97;;;1.60;99.90;;;;;;5061925;28;20072;-68
2022/01/12 08:47:04;;;;;;;17.70;3.22;;;1.70;99.90;;;;;;5060639;28;20029;-68
2022/01/12 08:49:29;;;;;;;25.70;3.58;;;1.70;99.90;;;;;;5056986;28;20124;-69
2022/01/12 08:51:55;;;;;;;5.75;3.30;;;1.70;99.90;;;;;;5061173;28;20123;-68
2022/01/12 08:54:21;;;;;;;11.32;3.53;;;1.70;99.90;;;;;;5059589;28;21552;-68
2022/01/12 08:56:47;;;;;;;24.63;4.70;;;1.70;99.90;;;;;;5057802;28;20029;-68
2022/01/12 08:59:14;;;;;;;31.15;4.97;;;1.70;99.90;;;;;;5062778;28;20060;-69
2022/01/12 09:01:40;;;;;;;6.28;3.25;;;1.70;99.90;;;;;;5054983;28;20390;-68
2022/01/12 09:04:06;;;;;;;21.77;4.43;;;1.80;99.90;;;;;;5061646;28;20124;-68
2022/01/12 09:06:32;;;;;;;18.75;3.90;;;1.80;99.90;;;;;;5063192;28;20147;-68
2022/01/12 09:08:58;;;;;;;18.98;4.80;;;1.80;99.90;;;;;;5055064;28;20486;-69
2022/01/12 09:11:23;;;;;;;52.00;6.47;;;1.80;99.90;;;;;;5060078;28;20565;-68
2022/01/12 09:13:51;;;;;;;45.22;6.00;;;1.80;99.90;;;;;;5058563;28;20110;-68
2022/01/12 09:16:16;;;;;;;55.60;6.80;;;1.80;99.90;;;;;;5062326;28;20473;-68
2022/01/12 09:18:43;;;;;;;51.67;7.07;;;1.80;99.90;;;;;;5067299;28;20091;-68
2022/01/12 09:21:10;;;;;;;40.45;6.80;;;1.80;99.90;;;;;;5055970;28;20044;-68
2022/01/12 09:23:36;;;;;;;19.73;4.88;;;1.80;99.90;;;;;;5065073;28;20559;-68
2022/01/12 09:26:03;;;;;;;15.57;4.03;;;1.80;99.90;;;;;;5055371;28;20090;-68
2022/01/12 09:28:29;;;;;;;14.15;4.18;;;1.80;99.90;;;;;;5055181;28;20044;-68
2022/01/12 09:30:55;;;;;;;50.47;6.25;;;1.80;99.90;;;;;;5058699;28;20048;-69
2022/01/12 09:33:21;;;;;;;56.58;7.70;;;1.90;99.90;;;;;;5063371;28;20047;-68
2022/01/12 09:35:49;;;;;;;51.30;6.30;;;1.90;99.90;;;;;;5058153;28;20045;-69
2022/01/12 09:38:18;;;;;;;78.78;7.95;;;1.80;99.90;;;;;;5058611;28;20048;-69
2022/01/12 09:40:45;;;;;;;61.83;6.03;;;1.80;99.90;;;;;;5058640;28;20589;-69
2022/01/12 09:43:12;;;;;;;61.90;6.57;;;1.80;99.90;;;;;;5055465;28;20045;-69
2022/01/12 09:45:39;;;;;;;57.03;7.22;;;1.80;99.90;;;;;;5062685;28;20120;-68
2022/01/12 09:48:09;;;;;;;30.45;4.90;;;1.80;99.90;;;;;;5059050;28;20470;-69
2022/01/12 09:50:35;;;;;;;21.50;4.80;;;1.80;99.90;;;;;;5059656;28;20045;-68
2022/01/12 09:53:01;;;;;;;84.95;8.10;;;1.80;99.90;;;;;;5058480;28;20379;-69
2022/01/12 09:55:27;;;;;;;90.88;9.73;;;1.90;99.90;;;;;;5058807;28;20036;-68
2022/01/12 09:57:52;;;;;;;24.25;5.93;;;1.90;99.90;;;;;;5062626;28;20043;-68
2022/01/12 10:00:23;;;;;;;86.75;9.05;;;1.90;99.90;;;;;;5054275;28;20037;-69
2022/01/12 10:02:49;;;;;;;77.13;8.65;;;2.00;99.90;;;;;;5059918;28;20049;-68
2022/01/12 10:05:17;;;;;;;21.80;5.03;;;2.10;99.90;;;;;;5052547;28;20028;-69
2022/01/12 10:07:43;;;;;;;29.70;5.40;;;2.10;99.90;;;;;;5054651;28;20128;-68
2022/01/12 10:10:15;;;;;;;25.92;4.32;;;2.20;99.90;;;;;;5056001;28;20098;-69
2022/01/12 10:12:54;;;;;;;28.45;5.03;;;2.20;99.90;;;;;;5060798;28;20511;-68
2022/01/12 10:15:21;;;;;;;23.05;5.15;;;2.30;99.90;;;;;;5057769;28;20060;-69
2022/01/12 10:17:47;;;;;;;5.15;2.67;;;2.30;99.90;;;;;;5054006;28;20512;-69
2022/01/12 10:20:18;;;;;;;27.65;4.63;;;2.40;99.90;;;;;;5053126;28;20072;-68
2022/01/12 10:23:07;;;;;;;14.05;3.90;;;2.40;99.90;;;;;;5053987;28;20107;-68
2022/01/12 10:25:34;;;;;;;14.48;4.20;;;2.50;99.90;;;;;;5061978;28;20475;-69
2022/01/12 10:28:18;;;;;;;4.22;2.78;;;2.50;99.90;;;;;;5061767;28;20390;-69
2022/01/12 10:30:58;;;;;;;29.55;4.70;;;2.60;99.90;;;;;;5069735;28;20052;-68
2022/01/12 10:33:32;;;;;;;30.42;5.43;;;2.60;99.90;;;;;;5061212;28;20032;-68
2022/01/12 10:36:00;;;;;;;14.32;4.05;;;2.60;99.90;;;;;;5052201;28;20108;-69
2022/01/12 10:38:27;;;;;;;11.05;3.33;;;2.70;99.90;;;;;;5057951;28;20157;-68
2022/01/12 10:40:58;;;;;;;9.95;3.50;;;2.80;99.90;;;;;;5060348;28;20486;-69
2022/01/12 10:43:42;;;;;;;10.48;3.60;;;2.80;99.90;;;;;;5068144;28;20105;-69
2022/01/12 10:46:15;;;;;;;11.00;4.13;;;2.90;99.90;;;;;;5060435;28;20079;-69
2022/01/12 10:48:45;;;;;;;7.72;4.22;;;3.00;99.90;;;;;;5057736;28;20076;-69
2022/01/12 10:51:19;;;;;;;8.13;4.40;;;3.00;99.90;;;;;;5055423;28;20072;-69
2022/01/12 10:53:46;;;;;;;25.42;5.55;;;3.10;99.90;;;;;;5058530;28;20072;-69
2022/01/12 10:56:23;;;;;;;13.48;4.45;;;3.20;99.90;;;;;;5064277;28;20036;-68
2022/01/12 10:58:50;;;;;;;9.55;4.63;;;3.30;99.90;;;;;;5059146;28;20033;-68
2022/01/12 11:01:19;;;;;;;8.25;3.88;;;3.30;99.90;;;;;;5062444;28;20393;-69
2022/01/12 11:03:47;;;;;;;13.95;5.63;;;3.40;99.90;;;;;;5062621;28;20087;-68
2022/01/12 11:06:14;;;;;;;9.80;4.22;;;3.50;99.90;;;;;;5055602;28;20119;-69
2022/01/12 11:08:41;;;;;;;9.80;4.80;;;3.60;99.90;;;;;;5065623;28;20040;-69
2022/01/12 11:11:08;;;;;;;10.18;6.22;;;3.70;99.90;;;;;;5059879;28;20055;-69
2022/01/12 11:13:34;;;;;;;10.48;5.78;;;3.80;99.90;;;;;;5059141;28;20071;-69
2022/01/12 11:16:01;;;;;;;11.00;4.85;;;4.00;99.90;;;;;;5063541;28;20049;-69
2022/01/12 11:18:33;;;;;;;9.30;5.10;;;4.20;99.90;;;;;;5061724;28;20478;-69
2022/01/12 11:21:05;;;;;;;11.73;6.47;;;4.50;99.90;;;;;;5057480;28;20052;-69
2022/01/12 11:23:40;;;;;;;16.42;5.88;;;5.20;99.90;;;;;;5067666;28;20512;-69
2022/01/12 11:26:22;;;;;;;13.05;5.15;;;5.90;99.90;;;;;;5059553;28;20041;-69
2022/01/12 11:28:51;;;;;;;17.25;5.30;;;6.20;99.90;;;;;;5059301;28;20035;-69
2022/01/12 11:31:34;;;;;;;13.45;4.95;;;6.30;99.90;;;;;;5062864;28;20037;-69
2022/01/12 11:34:00;;;;;;;9.10;4.28;;;6.50;99.90;;;;;;5047718;28;20048;-69
2022/01/12 11:36:37;;;;;;;13.23;6.30;;;6.60;99.90;;;;;;5055174;28;20493;-70
2022/01/12 11:39:06;;;;;;;14.25;6.18;;;7.00;99.90;;;;;;5065011;28;20107;-69
2022/01/12 11:41:34;;;;;;;14.55;5.60;;;7.50;99.90;;;;;;5064608;28;20060;-69
2022/01/12 11:44:08;;;;;;;7.97;4.15;;;8.20;99.90;;;;;;5061193;28;20047;-69
2022/01/12 11:46:55;;;;;;;12.13;5.85;;;9.00;99.90;;;;;;5064882;28;20124;-69
2022/01/12 11:49:44;;;;;;;9.85;4.50;;;9.70;99.90;;;;;;5071254;28;20426;-68
2022/01/12 11:52:30;;;;;;;12.90;4.15;;;10.40;99.90;;;;;;5065563;28;20461;-69
2022/01/12 11:55:10;;;;;;;9.30;3.90;;;11.00;99.90;;;;;;5069986;28;20064;-68
2022/01/12 11:57:41;;;;;;;8.07;3.97;;;11.40;99.90;;;;;;5069167;28;20048;-69
2022/01/12 12:00:13;;;;;;;10.55;4.20;;;11.80;99.90;;;;;;5071940;28;20047;-68
2022/01/12 12:02:49;;;;;;;11.52;3.75;;;12.30;99.90;;;;;;5068785;28;20035;-68
2022/01/12 12:05:23;;;;;;;12.38;3.88;;;12.70;99.90;;;;;;5056481;28;20490;-68
2022/01/12 12:08:02;;;;;;;7.72;3.47;;;13.10;99.90;;;;;;5063762;28;20057;-68
2022/01/12 12:10:32;;;;;;;13.63;3.88;;;13.20;99.90;;;;;;5063433;28;20048;-68
2022/01/12 12:12:58;;;;;;;11.05;4.32;;;13.20;99.90;;;;;;5066584;28;20070;-68
2022/01/12 12:15:25;;;;;;;10.68;4.05;;;;;;;;;;5061047;28;20053;-68
2022/01/12 12:17:53;;;;;;;7.88;4.40;;;;;;;;;;5062289;28;20098;-68
2022/01/12 12:20:20;;;;;;;10.95;4.38;;;;;;;;;;5059517;28;20044;-67
2022/01/12 12:22:48;;;;;;;11.38;4.53;;;13.50;99.90;;;;;;5066954;28;20045;-66
2022/01/12 12:25:16;;;;;;;11.88;4.15;;;15.40;98.80;;;;;;5064804;28;20060;-68
2022/01/12 12:27:55;;;;;;;11.30;4.65;;;15.80;95.50;;;;;;5053983;28;20041;-69
2022/01/12 12:30:22;;;;;;;12.75;4.90;;;16.10;93.50;;;;;;5065482;28;20049;-69
2022/01/12 12:33:11;;;;;;;13.70;5.68;;;16.30;91.70;;;;;;5064385;28;20047;-69
2022/01/12 12:35:39;;;;;;;8.48;4.72;;;16.60;86.80;;;;;;5065647;28;20040;-69
2022/01/12 12:38:07;;;;;;;9.52;4.72;;;16.60;85.70;;;;;;5061213;28;20045;-69
2022/01/12 12:40:37;;;;;;;10.68;4.70;;;16.90;84.00;;;;;;5065991;28;20782;-69
2022/01/12 12:43:06;;;;;;;12.18;5.82;;;17.10;81.40;;;;;;5064859;28;20052;-69
2022/01/12 12:45:59;;;;;;;11.93;4.88;;;17.20;79.00;;;;;;5062219;28;20040;-69
2022/01/12 12:48:30;;;;;;;15.35;4.70;;;16.90;71.90;;;;;;5061690;28;20058;-69
2022/01/12 12:51:00;;;;;;;12.10;4.63;;;16.90;77.90;;;;;;5062529;28;20044;-69
2022/01/12 12:53:27;;;;;;;11.82;4.32;;;17.00;76.50;;;;;;5057917;28;20033;-69
2022/01/12 12:55:53;;;;;;;11.27;4.93;;;17.00;76.20;;;;;;5060554;28;20036;-66
2022/01/12 12:58:19;;;;;;;13.80;4.72;;;17.00;75.60;;;;;;5065636;28;20472;-67
2022/01/12 13:00:45;;;;;;;12.20;4.38;;;16.60;75.30;;;;;;5058880;28;20032;-69
2022/01/12 13:03:11;;;;;;;10.30;4.43;;;16.30;76.60;;;;;;5067992;28;20048;-69
2022/01/12 13:05:43;;;;;;;11.02;4.68;;;16.00;76.90;;;;;;5059316;28;20044;-69
2022/01/12 13:08:10;;;;;;;14.10;5.50;;;15.40;78.20;;;;;;5055031;28;20040;-69
2022/01/12 13:10:37;;;;;;;8.60;4.38;;;15.10;80.70;;;;;;5064161;28;20402;-69
2022/01/12 13:13:05;;;;;;;11.43;4.65;;;14.60;81.20;;;;;;5063878;28;20097;-69
2022/01/12 13:15:36;;;;;;;11.55;4.40;;;14.30;82.20;;;;;;5065617;28;20040;-69
2022/01/12 13:18:05;;;;;;;11.00;4.47;;;13.80;83.50;;;;;;5062295;28;20135;-69
2022/01/12 13:23:23;;;;;;;17.92;4.72;;;13.50;87.60;;;;;;5055987;28;20086;-69
2022/01/12 13:25:54;;;;;;;12.27;5.20;;;13.90;88.70;;;;;;5060375;28;20044;-69
2022/01/12 13:28:20;;;;;;;10.48;4.43;;;13.80;87.60;;;;;;5062572;28;20031;-69
2022/01/12 13:30:58;;;;;;;18.85;5.43;;;13.50;88.50;;;;;;5055334;28;20185;-68
2022/01/12 13:33:30;;;;;;;17.42;4.78;;;13.20;87.90;;;;;;5063005;28;20029;-69
2022/01/12 13:35:58;;;;;;;16.77;5.10;;;12.90;89.10;;;;;;5060259;28;20401;-69
2022/01/12 13:38:31;;;;;;;12.80;4.45;;;12.70;91.70;;;;;;5057974;28;20052;-69
2022/01/12 13:41:16;;;;;;;12.93;4.47;;;13.00;92.90;;;;;;5065098;28;20044;-69
2022/01/12 13:43:45;;;;;;;18.00;5.88;;;13.60;90.60;;;;;;5065126;28;20502;-69
2022/01/12 13:46:15;;;;;;;11.95;4.90;;;14.40;88.20;;;;;;5059123;28;20047;-69
2022/01/12 13:49:10;;;;;;;10.45;4.13;;;15.40;83.30;;;;;;5059992;28;20116;-69
2022/01/12 13:51:37;;;;;;;15.18;6.03;;;16.30;79.00;;;;;;5059092;28;20073;-70
2022/01/12 13:54:08;;;;;;;12.27;5.57;;;16.80;76.10;;;;;;5053857;28;20040;-69
2022/01/12 13:56:41;;;;;;;9.90;4.68;;;17.40;73.70;;;;;;5060071;28;20040;-70
2022/01/12 13:59:08;;;;;;;16.77;5.13;;;17.90;71.00;;;;;;5063455;28;20116;-71
2022/01/12 14:01:36;;;;;;;13.27;4.80;;;18.40;69.70;;;;;;5069091;28;20044;-70
2022/01/12 14:04:10;;;;;;;15.15;5.68;;;18.50;67.70;;;;;;5059183;28;20122;-68
2022/01/12 14:06:46;;;;;;;12.27;4.63;;;18.10;67.40;;;;;;5057761;28;20045;-68
2022/01/12 14:09:38;;;;;;;16.98;4.75;;;17.00;68.10;;;;;;5063797;28;20145;-68
2022/01/12 14:12:26;;;;;;;13.57;4.65;;;16.00;69.40;;;;;;5038790;28;20068;-68
2022/01/12 14:15:00;;;;;;;11.45;4.45;;;14.90;70.40;;;;;;5061157;28;20076;-68
2022/01/12 14:17:43;;;;;;;14.70;4.72;;;14.10;74.30;;;;;;5077386;28;20405;-68
2022/01/12 14:20:23;;;;;;;12.88;6.15;;;13.40;75.60;;;;;;5058313;28;20041;-69